sensor_id;sensor_type;location;lat;lon;timestamp;pressure;altitude;pressure_sealevel;temperature;humidity
9139;BME280;4604;48.616;9.548;2023-01-25T00:02:00;98421.31;;;2.05;100.00
9139;BME280;4604;48.616;9.548;2023-01-25T00:04:27;98425.72;;;2.03;100.00
9139;BME280;4604;48.616;9.548;2023-01-25T00:06:55;98422.75;;;2.14;100.00
9139;BME280;4604;48.616;9.548;2023-01-25T00:09:23;98422.75;;;2.14;100.00
9139;BME280;4604;48.616;9.548;2023-01-25T00:11:50;98430.41;;;2.19;100.00
9139;BME280;4604;48.616;9.548;2023-01-25T00:14:17;98438.69;;;2.31;100.00
9139;BME280;4604;48.616;9.548;2023-01-25T00:16:44;98425.34;;;2.14;100.00
9139;BME280;4604;48.616;9.548;2023-01-25T00:19:11;98429.69;;;2.15;100.00
9139;BME280;4604;48.616;9.548;2023-01-25T00:21:38;98419.59;;;2.04;100.00
9139;BME280;4604;48.616;9.548;2023-01-25T00:24:07;98417.91;;;2.03;100.00
9139;BME280;4604;48.616;9.548;2023-01-25T00:26:36;98411.50;;;2.13;100.00
9139;BME280;4604;48.616;9.548;2023-01-25T00:29:03;98411.53;;;2.12;100.00
9139;BME280;4604;48.616;9.548;2023-01-25T00:31:37;98413.34;;;2.10;100.00
9139;BME280;4604;48.616;9.548;2023-01-25T00:34:24;98405.72;;;2.30;100.00
9139;BME280;4604;48.616;9.548;2023-01-25T00:37:02;98402.84;;;2.38;100.00
9139;BME280;4604;48.616;9.548;2023-01-25T00:39:37;98407.53;;;2.28;100.00
9139;BME280;4604;48.616;9.548;2023-01-25T00:42:07;98401.91;;;2.14;100.00
9139;BME280;4604;48.616;9.548;2023-01-25T00:44:34;98403.81;;;2.09;100.00
9139;BME280;4604;48.616;9.548;2023-01-25T00:47:01;98400.06;;;2.18;100.00
9139;BME280;4604;48.616;9.548;2023-01-25T00:49:29;98401.44;;;2.29;100.00
9139;BME280;4604;48.616;9.548;2023-01-25T00:51:57;98400.81;;;2.21;100.00
9139;BME280;4604;48.616;9.548;2023-01-25T00:54:24;98401.97;;;2.39;100.00
9139;BME280;4604;48.616;9.548;2023-01-25T00:56:52;98406.84;;;2.23;100.00
9139;BME280;4604;48.616;9.548;2023-01-25T00:59:21;98397.63;;;2.13;100.00
9139;BME280;4604;48.616;9.548;2023-01-25T01:01:48;98405.38;;;2.14;100.00
9139;BME280;4604;48.616;9.548;2023-01-25T01:04:15;98407.34;;;2.08;100.00
9139;BME280;4604;48.616;9.548;2023-01-25T01:06:41;98407.38;;;2.06;100.00
9139;BME280;4604;48.616;9.548;2023-01-25T01:09:12;98403.78;;;2.10;100.00
9139;BME280;4604;48.616;9.548;2023-01-25T01:11:39;98402.84;;;2.13;100.00
9139;BME280;4604;48.616;9.548;2023-01-25T01:14:07;98395.69;;;2.20;100.00
9139;BME280;4604;48.616;9.548;2023-01-25T01:16:34;98396.41;;;2.23;100.00
9139;BME280;4604;48.616;9.548;2023-01-25T01:19:01;98396.03;;;2.34;100.00
9139;BME280;4604;48.616;9.548;2023-01-25T01:21:27;98392.88;;;2.24;100.00
9139;BME280;4604;48.616;9.548;2023-01-25T01:23:54;98395.88;;;2.13;100.00
9139;BME280;4604;48.616;9.548;2023-01-25T01:26:21;98400.41;;;2.07;100.00
9139;BME280;4604;48.616;9.548;2023-01-25T01:28:48;98399.69;;;2.03;100.00
9139;BME280;4604;48.616;9.548;2023-01-25T01:31:17;98406.13;;;2.18;100.00
9139;BME280;4604;48.616;9.548;2023-01-25T01:33:47;98393.06;;;2.20;100.00
9139;BME280;4604;48.616;9.548;2023-01-25T01:36:15;98403.28;;;2.26;100.00
9139;BME280;4604;48.616;9.548;2023-01-25T01:38:42;98398.47;;;2.13;100.00
9139;BME280;4604;48.616;9.548;2023-01-25T01:41:10;98400.41;;;2.07;100.00
9139;BME280;4604;48.616;9.548;2023-01-25T01:43:38;98401.13;;;2.12;100.00
9139;BME280;4604;48.616;9.548;2023-01-25T01:46:08;98402.63;;;2.19;100.00
9139;BME280;4604;48.616;9.548;2023-01-25T01:48:40;98393.00;;;2.21;100.00
9139;BME280;4604;48.616;9.548;2023-01-25T01:51:14;98392.03;;;2.24;100.00
9139;BME280;4604;48.616;9.548;2023-01-25T01:53:45;98388.00;;;2.42;100.00
9139;BME280;4604;48.616;9.548;2023-01-25T01:56:16;98386.53;;;2.33;100.00
9139;BME280;4604;48.616;9.548;2023-01-25T01:58:46;98392.16;;;2.21;100.00
9139;BME280;4604;48.616;9.548;2023-01-25T02:01:15;98389.50;;;2.22;100.00
9139;BME280;4604;48.616;9.548;2023-01-25T02:03:43;98387.50;;;2.30;100.00
9139;BME280;4604;48.616;9.548;2023-01-25T02:06:13;98385.38;;;2.42;100.00
9139;BME280;4604;48.616;9.548;2023-01-25T02:08:40;98385.28;;;2.45;100.00
9139;BME280;4604;48.616;9.548;2023-01-25T02:11:08;98385.91;;;2.51;100.00
9139;BME280;4604;48.616;9.548;2023-01-25T02:13:36;98387.06;;;2.18;100.00
9139;BME280;4604;48.616;9.548;2023-01-25T02:16:04;98395.59;;;2.21;100.00
9139;BME280;4604;48.616;9.548;2023-01-25T02:18:32;98399.66;;;2.30;100.00
9139;BME280;4604;48.616;9.548;2023-01-25T02:21:00;98397.38;;;2.21;100.00
9139;BME280;4604;48.616;9.548;2023-01-25T02:23:30;98401.72;;;2.20;100.00
9139;BME280;4604;48.616;9.548;2023-01-25T02:26:02;98390.69;;;2.12;100.00
9139;BME280;4604;48.616;9.548;2023-01-25T02:28:31;98389.03;;;2.36;100.00
9139;BME280;4604;48.616;9.548;2023-01-25T02:31:00;98383.59;;;2.17;100.00
9139;BME280;4604;48.616;9.548;2023-01-25T02:33:27;98389.03;;;2.09;100.00
9139;BME280;4604;48.616;9.548;2023-01-25T02:35:59;98383.97;;;2.05;100.00
9139;BME280;4604;48.616;9.548;2023-01-25T02:38:41;98381.28;;;2.34;100.00
9139;BME280;4604;48.616;9.548;2023-01-25T02:41:14;98387.06;;;2.18;100.00
9139;BME280;4604;48.616;9.548;2023-01-25T02:43:41;98385.75;;;2.04;100.00
9139;BME280;4604;48.616;9.548;2023-01-25T02:46:12;98387.09;;;2.16;100.00
9139;BME280;4604;48.616;9.548;2023-01-25T02:48:39;98384.72;;;2.35;100.00
9139;BME280;4604;48.616;9.548;2023-01-25T02:51:07;98374.97;;;2.42;100.00
9139;BME280;4604;48.616;9.548;2023-01-25T02:53:34;98375.47;;;2.26;100.00
9139;BME280;4604;48.616;9.548;2023-01-25T02:56:01;98384.53;;;2.14;100.00
9139;BME280;4604;48.616;9.548;2023-01-25T02:58:29;98374.84;;;1.93;100.00
9139;BME280;4604;48.616;9.548;2023-01-25T03:00:56;98377.44;;;1.93;100.00
9139;BME280;4604;48.616;9.548;2023-01-25T03:03:23;98367.19;;;1.88;100.00
9139;BME280;4604;48.616;9.548;2023-01-25T03:05:50;98380.09;;;1.91;100.00
9139;BME280;4604;48.616;9.548;2023-01-25T03:08:16;98365.38;;;1.90;100.00
9139;BME280;4604;48.616;9.548;2023-01-25T03:10:43;98367.72;;;1.98;100.00
9139;BME280;4604;48.616;9.548;2023-01-25T03:13:10;98367.44;;;2.07;100.00
9139;BME280;4604;48.616;9.548;2023-01-25T03:15:38;98374.63;;;1.99;100.00
9139;BME280;4604;48.616;9.548;2023-01-25T03:18:04;98366.66;;;2.04;100.00
9139;BME280;4604;48.616;9.548;2023-01-25T03:20:31;98366.94;;;1.96;100.00
9139;BME280;4604;48.616;9.548;2023-01-25T03:22:58;98361.69;;;1.98;100.00
9139;BME280;4604;48.616;9.548;2023-01-25T03:25:25;98360.72;;;2.00;100.00
9139;BME280;4604;48.616;9.548;2023-01-25T03:27:52;98356.06;;;2.10;100.00
9139;BME280;4604;48.616;9.548;2023-01-25T03:30:18;98348.41;;;2.05;100.00
9139;BME280;4604;48.616;9.548;2023-01-25T03:32:46;98349.69;;;2.19;100.00
9139;BME280;4604;48.616;9.548;2023-01-25T03:35:15;98333.41;;;2.12;100.00
9139;BME280;4604;48.616;9.548;2023-01-25T03:37:41;98337.66;;;2.14;100.00
9139;BME280;4604;48.616;9.548;2023-01-25T03:40:09;98322.50;;;2.51;100.00
9139;BME280;4604;48.616;9.548;2023-01-25T03:42:36;98324.16;;;2.28;100.00
9139;BME280;4604;48.616;9.548;2023-01-25T03:45:03;98321.25;;;2.38;100.00
9139;BME280;4604;48.616;9.548;2023-01-25T03:47:30;98319.28;;;2.19;100.00
9139;BME280;4604;48.616;9.548;2023-01-25T03:49:58;98310.72;;;2.16;100.00
9139;BME280;4604;48.616;9.548;2023-01-25T03:52:25;98318.34;;;1.95;100.00
9139;BME280;4604;48.616;9.548;2023-01-25T03:54:52;98323.56;;;1.95;100.00
9139;BME280;4604;48.616;9.548;2023-01-25T03:57:18;98316.81;;;1.89;100.00
9139;BME280;4604;48.616;9.548;2023-01-25T03:59:45;98318.06;;;1.78;100.00
9139;BME280;4604;48.616;9.548;2023-01-25T04:02:12;98326.69;;;1.80;100.00
9139;BME280;4604;48.616;9.548;2023-01-25T04:04:38;98331.03;;;1.79;100.00
9139;BME280;4604;48.616;9.548;2023-01-25T04:07:07;98328.28;;;1.84;100.00
9139;BME280;4604;48.616;9.548;2023-01-25T04:09:34;98325.69;;;1.84;100.00
9139;BME280;4604;48.616;9.548;2023-01-25T04:12:00;98318.53;;;1.90;100.00
9139;BME280;4604;48.616;9.548;2023-01-25T04:14:27;98322.84;;;1.90;100.00
9139;BME280;4604;48.616;9.548;2023-01-25T04:16:54;98325.44;;;1.91;100.00
9139;BME280;4604;48.616;9.548;2023-01-25T04:19:20;98318.44;;;2.19;100.00
9139;BME280;4604;48.616;9.548;2023-01-25T04:21:47;98319.84;;;2.02;100.00
9139;BME280;4604;48.616;9.548;2023-01-25T04:24:15;98317.25;;;2.02;100.00
9139;BME280;4604;48.616;9.548;2023-01-25T04:26:41;98314.84;;;1.96;100.00
9139;BME280;4604;48.616;9.548;2023-01-25T04:29:10;98322.56;;;2.24;100.00
9139;BME280;4604;48.616;9.548;2023-01-25T04:31:37;98312.34;;;2.20;100.00
9139;BME280;4604;48.616;9.548;2023-01-25T04:34:04;98311.03;;;2.06;100.00
9139;BME280;4604;48.616;9.548;2023-01-25T04:36:30;98310.91;;;2.09;100.00
9139;BME280;4604;48.616;9.548;2023-01-25T04:38:57;98307.47;;;1.84;100.00
9139;BME280;4604;48.616;9.548;2023-01-25T04:41:25;98312.13;;;1.74;100.00
9139;BME280;4604;48.616;9.548;2023-01-25T04:43:53;98313.88;;;1.74;100.00
9139;BME280;4604;48.616;9.548;2023-01-25T04:46:20;98312.25;;;1.96;100.00
9139;BME280;4604;48.616;9.548;2023-01-25T04:48:46;98310.03;;;1.85;100.00
9139;BME280;4604;48.616;9.548;2023-01-25T04:51:13;98302.56;;;2.00;100.00
9139;BME280;4604;48.616;9.548;2023-01-25T04:53:40;98305.50;;;1.90;100.00
9139;BME280;4604;48.616;9.548;2023-01-25T04:56:06;98315.00;;;1.91;100.00
9139;BME280;4604;48.616;9.548;2023-01-25T04:58:34;98315.97;;;1.89;100.00
9139;BME280;4604;48.616;9.548;2023-01-25T05:01:02;98312.50;;;1.88;100.00
9139;BME280;4604;48.616;9.548;2023-01-25T05:03:29;98306.22;;;1.69;100.00
9139;BME280;4604;48.616;9.548;2023-01-25T05:05:56;98310.56;;;1.68;100.00
9139;BME280;4604;48.616;9.548;2023-01-25T05:08:22;98308.13;;;1.90;100.00
9139;BME280;4604;48.616;9.548;2023-01-25T05:10:50;98300.78;;;1.75;100.00
9139;BME280;4604;48.616;9.548;2023-01-25T05:13:16;98294.59;;;2.04;100.00
9139;BME280;4604;48.616;9.548;2023-01-25T05:15:44;98301.41;;;1.83;100.00
9139;BME280;4604;48.616;9.548;2023-01-25T05:18:11;98292.25;;;1.71;100.00
9139;BME280;4604;48.616;9.548;2023-01-25T05:20:38;98305.41;;;1.67;100.00
9139;BME280;4604;48.616;9.548;2023-01-25T05:23:04;98293.75;;;1.79;100.00
9139;BME280;4604;48.616;9.548;2023-01-25T05:25:31;98294.78;;;1.73;100.00
9139;BME280;4604;48.616;9.548;2023-01-25T05:28:15;98298.03;;;1.80;100.00
9139;BME280;4604;48.616;9.548;2023-01-25T05:30:42;98298.13;;;1.78;100.00
9139;BME280;4604;48.616;9.548;2023-01-25T05:33:10;98294.22;;;1.90;100.00
9139;BME280;4604;48.616;9.548;2023-01-25T05:35:36;98293.09;;;1.72;100.00
9139;BME280;4604;48.616;9.548;2023-01-25T05:38:03;98293.25;;;1.67;100.00
9139;BME280;4604;48.616;9.548;2023-01-25T05:40:29;98292.19;;;1.73;100.00
9139;BME280;4604;48.616;9.548;2023-01-25T05:42:57;98296.19;;;1.83;100.00
9139;BME280;4604;48.616;9.548;2023-01-25T05:45:25;98298.03;;;1.80;100.00
9139;BME280;4604;48.616;9.548;2023-01-25T05:47:52;98298.00;;;1.81;100.00
9139;BME280;4604;48.616;9.548;2023-01-25T05:50:21;98299.00;;;1.77;100.00
9139;BME280;4604;48.616;9.548;2023-01-25T05:52:48;98291.06;;;1.80;100.00
9139;BME280;4604;48.616;9.548;2023-01-25T05:55:15;98293.63;;;1.82;100.00
9139;BME280;4604;48.616;9.548;2023-01-25T05:57:42;98288.59;;;1.77;100.00
9139;BME280;4604;48.616;9.548;2023-01-25T06:00:10;98288.31;;;1.85;100.00
9139;BME280;4604;48.616;9.548;2023-01-25T06:02:37;98288.31;;;1.85;100.00
9139;BME280;4604;48.616;9.548;2023-01-25T06:05:04;98293.59;;;1.83;100.00
9139;BME280;4604;48.616;9.548;2023-01-25T06:07:34;98299.59;;;1.85;100.00
9139;BME280;4604;48.616;9.548;2023-01-25T06:10:02;98290.75;;;1.91;100.00
9139;BME280;4604;48.616;9.548;2023-01-25T06:12:28;98298.94;;;2.05;100.00
9139;BME280;4604;48.616;9.548;2023-01-25T06:14:55;98285.41;;;2.19;100.00
9139;BME280;4604;48.616;9.548;2023-01-25T06:17:22;98286.53;;;2.12;100.00
9139;BME280;4604;48.616;9.548;2023-01-25T06:19:49;98292.72;;;1.83;100.00
9139;BME280;4604;48.616;9.548;2023-01-25T06:22:15;98293.59;;;1.83;100.00
9139;BME280;4604;48.616;9.548;2023-01-25T06:24:43;98291.28;;;1.74;100.00
9139;BME280;4604;48.616;9.548;2023-01-25T06:27:10;98290.06;;;1.59;100.00
9139;BME280;4604;48.616;9.548;2023-01-25T06:29:36;98284.44;;;1.71;100.00
9139;BME280;4604;48.616;9.548;2023-01-25T06:32:03;98288.34;;;1.58;100.00
9139;BME280;4604;48.616;9.548;2023-01-25T06:34:30;98278.44;;;1.69;100.00
9139;BME280;4604;48.616;9.548;2023-01-25T06:36:57;98288.44;;;1.55;100.00
9139;BME280;4604;48.616;9.548;2023-01-25T06:39:23;98289.94;;;1.36;100.00
9139;BME280;4604;48.616;9.548;2023-01-25T06:41:51;98278.22;;;1.22;100.00
9139;BME280;4604;48.616;9.548;2023-01-25T06:44:19;98285.97;;;1.24;100.00
9139;BME280;4604;48.616;9.548;2023-01-25T06:46:45;98266.09;;;1.21;100.00
9139;BME280;4604;48.616;9.548;2023-01-25T06:49:12;98285.72;;;1.32;100.00
9139;BME280;4604;48.616;9.548;2023-01-25T06:51:39;98277.88;;;1.33;100.00
9139;BME280;4604;48.616;9.548;2023-01-25T06:54:05;98275.09;;;1.39;100.00
9139;BME280;4604;48.616;9.548;2023-01-25T06:56:32;98267.22;;;1.41;100.00
9139;BME280;4604;48.616;9.548;2023-01-25T06:59:00;98273.38;;;1.65;100.00
9139;BME280;4604;48.616;9.548;2023-01-25T07:01:27;98274.78;;;1.48;100.00
9139;BME280;4604;48.616;9.548;2023-01-25T07:03:57;98268.72;;;1.48;100.00
9139;BME280;4604;48.616;9.548;2023-01-25T07:06:25;98275.56;;;1.50;100.00
9139;BME280;4604;48.616;9.548;2023-01-25T07:08:52;98273.75;;;1.54;100.00
9139;BME280;4604;48.616;9.548;2023-01-25T07:11:18;98255.47;;;1.56;100.00
9139;BME280;4604;48.616;9.548;2023-01-25T07:13:46;98257.91;;;1.60;100.00
9139;BME280;4604;48.616;9.548;2023-01-25T07:16:17;98266.50;;;1.64;100.00
9139;BME280;4604;48.616;9.548;2023-01-25T07:18:44;98266.38;;;1.67;100.00
9139;BME280;4604;48.616;9.548;2023-01-25T07:21:12;98268.06;;;1.68;100.00
9139;BME280;4604;48.616;9.548;2023-01-25T07:23:40;98261.22;;;1.65;100.00
9139;BME280;4604;48.616;9.548;2023-01-25T07:26:13;98251.59;;;1.67;100.00
9139;BME280;4604;48.616;9.548;2023-01-25T07:28:41;98256.41;;;1.80;100.00
9139;BME280;4604;48.616;9.548;2023-01-25T07:31:08;98250.25;;;1.82;100.00
9139;BME280;4604;48.616;9.548;2023-01-25T07:33:36;98252.25;;;1.74;100.00
9139;BME280;4604;48.616;9.548;2023-01-25T07:36:04;98256.66;;;1.72;100.00
9139;BME280;4604;48.616;9.548;2023-01-25T07:38:32;98256.78;;;1.69;100.00
9139;BME280;4604;48.616;9.548;2023-01-25T07:40:59;98259.44;;;1.92;100.00
9139;BME280;4604;48.616;9.548;2023-01-25T07:43:26;98255.66;;;2.01;100.00
9139;BME280;4604;48.616;9.548;2023-01-25T07:45:53;98260.59;;;1.84;100.00
9139;BME280;4604;48.616;9.548;2023-01-25T07:48:20;98264.97;;;1.83;100.00
9139;BME280;4604;48.616;9.548;2023-01-25T07:50:48;98262.09;;;1.91;100.00
9139;BME280;4604;48.616;9.548;2023-01-25T07:53:34;98260.84;;;2.03;100.00
9139;BME280;4604;48.616;9.548;2023-01-25T07:56:01;98257.88;;;1.87;100.00
9139;BME280;4604;48.616;9.548;2023-01-25T07:58:28;98244.94;;;1.85;100.00
9139;BME280;4604;48.616;9.548;2023-01-25T08:00:54;98244.59;;;1.69;100.00
9139;BME280;4604;48.616;9.548;2023-01-25T08:03:21;98252.56;;;1.65;100.00
9139;BME280;4604;48.616;9.548;2023-01-25T08:05:49;98246.66;;;1.60;100.00
9139;BME280;4604;48.616;9.548;2023-01-25T08:08:15;98248.19;;;1.65;100.00
9139;BME280;4604;48.616;9.548;2023-01-25T08:10:42;98244.09;;;1.58;100.00
9139;BME280;4604;48.616;9.548;2023-01-25T08:13:10;98251.88;;;1.60;100.00
9139;BME280;4604;48.616;9.548;2023-01-25T08:15:36;98250.00;;;1.63;100.00
9139;BME280;4604;48.616;9.548;2023-01-25T08:18:03;98243.59;;;1.74;100.00
9139;BME280;4604;48.616;9.548;2023-01-25T08:20:30;98248.00;;;1.71;100.00
9139;BME280;4604;48.616;9.548;2023-01-25T08:22:58;98242.44;;;1.56;100.00
9139;BME280;4604;48.616;9.548;2023-01-25T08:25:24;98249.31;;;1.58;100.00
9139;BME280;4604;48.616;9.548;2023-01-25T08:27:52;98251.03;;;1.59;100.00
9139;BME280;4604;48.616;9.548;2023-01-25T08:30:19;98243.94;;;1.63;100.00
9139;BME280;4604;48.616;9.548;2023-01-25T08:32:45;98234.50;;;1.60;100.00
9139;BME280;4604;48.616;9.548;2023-01-25T08:35:13;98240.47;;;1.64;100.00
9139;BME280;4604;48.616;9.548;2023-01-25T08:37:39;98233.34;;;1.69;100.00
9139;BME280;4604;48.616;9.548;2023-01-25T08:40:09;98235.88;;;1.70;100.00
9139;BME280;4604;48.616;9.548;2023-01-25T08:42:38;98231.28;;;1.79;100.00
9139;BME280;4604;48.616;9.548;2023-01-25T08:45:07;98233.03;;;1.78;100.00
9139;BME280;4604;48.616;9.548;2023-01-25T08:47:34;98229.06;;;1.93;100.00
9139;BME280;4604;48.616;9.548;2023-01-25T08:50:01;98241.16;;;1.94;100.00
9139;BME280;4604;48.616;9.548;2023-01-25T08:52:28;98229.38;;;1.84;100.00
9139;BME280;4604;48.616;9.548;2023-01-25T08:54:54;98233.50;;;1.89;100.00
9139;BME280;4604;48.616;9.548;2023-01-25T08:57:22;98229.91;;;1.93;100.00
9139;BME280;4604;48.616;9.548;2023-01-25T08:59:49;98231.31;;;1.77;100.00
9139;BME280;4604;48.616;9.548;2023-01-25T09:02:15;98222.03;;;1.95;100.00
9139;BME280;4604;48.616;9.548;2023-01-25T09:04:43;98225.53;;;1.94;100.00
9139;BME280;4604;48.616;9.548;2023-01-25T09:07:10;98228.69;;;1.79;100.00
9139;BME280;4604;48.616;9.548;2023-01-25T09:09:36;98222.13;;;1.92;100.00
9139;BME280;4604;48.616;9.548;2023-01-25T09:12:04;98220.81;;;2.05;100.00
9139;BME280;4604;48.616;9.548;2023-01-25T09:14:32;98220.06;;;2.02;100.00
9139;BME280;4604;48.616;9.548;2023-01-25T09:16:58;98218.91;;;1.85;100.00
9139;BME280;4604;48.616;9.548;2023-01-25T09:19:25;98214.09;;;1.73;100.00
9139;BME280;4604;48.616;9.548;2023-01-25T09:21:51;98211.84;;;1.89;100.00
9139;BME280;4604;48.616;9.548;2023-01-25T09:24:18;98215.75;;;2.01;100.00
9139;BME280;4604;48.616;9.548;2023-01-25T09:26:44;98221.19;;;2.20;100.00
9139;BME280;4604;48.616;9.548;2023-01-25T09:29:11;98225.53;;;1.94;100.00
9139;BME280;4604;48.616;9.548;2023-01-25T09:31:39;98229.47;;;1.81;100.00
9139;BME280;4604;48.616;9.548;2023-01-25T09:34:08;98222.97;;;1.92;100.00
9139;BME280;4604;48.616;9.548;2023-01-25T09:36:35;98223.75;;;1.96;100.00
9139;BME280;4604;48.616;9.548;2023-01-25T09:39:02;98219.91;;;1.81;100.00
9139;BME280;4604;48.616;9.548;2023-01-25T09:44:41;98217.47;;;1.77;100.00
9139;BME280;4604;48.616;9.548;2023-01-25T09:47:19;98208.75;;;1.78;100.00
9139;BME280;4604;48.616;9.548;2023-01-25T09:55:54;98207.53;;;1.88;100.00
9139;BME280;4604;48.616;9.548;2023-01-25T09:58:27;98203.06;;;1.91;100.00
9139;BME280;4604;48.616;9.548;2023-01-25T10:01:07;98201.72;;;2.05;100.00
9139;BME280;4604;48.616;9.548;2023-01-25T10:03:42;98198.19;;;2.07;100.00
9139;BME280;4604;48.616;9.548;2023-01-25T10:06:13;98199.03;;;2.08;100.00
9139;BME280;4604;48.616;9.548;2023-01-25T10:08:48;98207.63;;;2.10;100.00
9139;BME280;4604;48.616;9.548;2023-01-25T10:11:21;98207.34;;;2.18;100.00
9139;BME280;4604;48.616;9.548;2023-01-25T10:13:48;98197.78;;;2.18;100.00
9139;BME280;4604;48.616;9.548;2023-01-25T10:16:19;98200.78;;;2.31;100.00
9139;BME280;4604;48.616;9.548;2023-01-25T10:18:55;98197.75;;;2.20;100.00
9139;BME280;4604;48.616;9.548;2023-01-25T10:21:27;98185.72;;;2.16;100.00
9139;BME280;4604;48.616;9.548;2023-01-25T10:24:18;98184.44;;;2.02;100.00
9139;BME280;4604;48.616;9.548;2023-01-25T10:26:54;98187.72;;;2.32;100.00
9139;BME280;4604;48.616;9.548;2023-01-25T10:29:26;98186.19;;;2.27;100.00
9139;BME280;4604;48.616;9.548;2023-01-25T10:31:54;98185.59;;;2.19;100.00
9139;BME280;4604;48.616;9.548;2023-01-25T10:34:27;98172.59;;;2.19;100.00
9139;BME280;4604;48.616;9.548;2023-01-25T10:36:56;98173.75;;;2.33;100.00
9139;BME280;4604;48.616;9.548;2023-01-25T10:39:26;98174.81;;;2.29;100.00
9139;BME280;4604;48.616;9.548;2023-01-25T10:41:58;98170.34;;;2.31;100.00
9139;BME280;4604;48.616;9.548;2023-01-25T10:44:25;98177.78;;;2.19;100.00
9139;BME280;4604;48.616;9.548;2023-01-25T10:46:59;98165.22;;;2.06;100.00
9139;BME280;4604;48.616;9.548;2023-01-25T10:49:36;98165.72;;;2.16;100.00
9139;BME280;4604;48.616;9.548;2023-01-25T10:52:13;98154.19;;;2.23;100.00
9139;BME280;4604;48.616;9.548;2023-01-25T10:54:40;98158.66;;;2.20;100.00
9139;BME280;4604;48.616;9.548;2023-01-25T10:57:08;98150.84;;;2.20;100.00
9139;BME280;4604;48.616;9.548;2023-01-25T10:59:38;98151.41;;;2.28;100.00
9139;BME280;4604;48.616;9.548;2023-01-25T11:02:35;98144.94;;;2.14;100.00
9139;BME280;4604;48.616;9.548;2023-01-25T11:05:26;98143.03;;;2.20;100.00
9139;BME280;4604;48.616;9.548;2023-01-25T11:07:53;98134.72;;;2.10;100.00
9139;BME280;4604;48.616;9.548;2023-01-25T11:10:30;98141.50;;;2.14;100.00
9139;BME280;4604;48.616;9.548;2023-01-25T11:13:17;98140.44;;;2.20;100.00
9139;BME280;4604;48.616;9.548;2023-01-25T11:15:46;98141.13;;;2.25;100.00
9139;BME280;4604;48.616;9.548;2023-01-25T11:18:17;98133.00;;;2.09;100.00
9139;BME280;4604;48.616;9.548;2023-01-25T11:20:46;98136.41;;;2.11;100.00
9139;BME280;4604;48.616;9.548;2023-01-25T11:23:21;98134.94;;;2.04;100.00
9139;BME280;4604;48.616;9.548;2023-01-25T11:25:49;98126.50;;;1.97;100.00
9139;BME280;4604;48.616;9.548;2023-01-25T11:28:18;98121.97;;;2.02;100.00
9139;BME280;4604;48.616;9.548;2023-01-25T11:30:46;98120.09;;;2.06;100.00
9139;BME280;4604;48.616;9.548;2023-01-25T11:33:14;98112.94;;;2.12;100.00
9139;BME280;4604;48.616;9.548;2023-01-25T11:35:52;98124.81;;;2.20;100.00
9139;BME280;4604;48.616;9.548;2023-01-25T11:38:26;98115.53;;;2.12;100.00
9139;BME280;4604;48.616;9.548;2023-01-25T11:41:00;98120.94;;;2.30;100.00
9139;BME280;4604;48.616;9.548;2023-01-25T11:43:57;98122.09;;;2.23;100.00
9139;BME280;4604;48.616;9.548;2023-01-25T11:46:38;98109.22;;;2.18;100.00
9139;BME280;4604;48.616;9.548;2023-01-25T11:49:20;98100.63;;;2.16;100.00
9139;BME280;4604;48.616;9.548;2023-01-25T11:51:55;98089.06;;;2.23;100.00
9139;BME280;4604;48.616;9.548;2023-01-25T11:54:44;98092.59;;;2.22;100.00
9139;BME280;4604;48.616;9.548;2023-01-25T11:57:28;98088.06;;;2.27;100.00
9139;BME280;4604;48.616;9.548;2023-01-25T12:00:09;98079.94;;;2.35;100.00
9139;BME280;4604;48.616;9.548;2023-01-25T12:03:11;98079.88;;;2.37;100.00
9139;BME280;4604;48.616;9.548;2023-01-25T12:05:52;98064.31;;;2.35;100.00
9139;BME280;4604;48.616;9.548;2023-01-25T12:08:40;98063.28;;;2.39;100.00
9139;BME280;4604;48.616;9.548;2023-01-25T12:11:15;98058.25;;;2.34;100.00
9139;BME280;4604;48.616;9.548;2023-01-25T12:13:53;98048.91;;;2.29;100.00
9139;BME280;4604;48.616;9.548;2023-01-25T12:16:40;98051.59;;;2.27;100.00
9139;BME280;4604;48.616;9.548;2023-01-25T12:19:19;98037.34;;;2.36;100.00
9139;BME280;4604;48.616;9.548;2023-01-25T12:22:01;98032.06;;;2.38;100.00
9139;BME280;4604;48.616;9.548;2023-01-25T12:24:39;98026.75;;;2.19;100.00
9139;BME280;4604;48.616;9.548;2023-01-25T12:27:20;98023.34;;;2.17;100.00
9139;BME280;4604;48.616;9.548;2023-01-25T12:29:54;98018.25;;;2.35;100.00
9139;BME280;4604;48.616;9.548;2023-01-25T12:32:29;98019.06;;;2.38;100.00
9139;BME280;4604;48.616;9.548;2023-01-25T12:35:15;98007.03;;;2.55;100.00
9139;BME280;4604;48.616;9.548;2023-01-25T12:37:45;98006.06;;;2.36;100.00
9139;BME280;4604;48.616;9.548;2023-01-25T12:40:19;97997.97;;;2.22;100.00
9139;BME280;4604;48.616;9.548;2023-01-25T12:42:51;97991.50;;;2.32;100.00
9139;BME280;4604;48.616;9.548;2023-01-25T12:45:21;97988.28;;;2.25;100.00
9139;BME280;4604;48.616;9.548;2023-01-25T12:47:52;97967.88;;;2.14;100.00
9139;BME280;4604;48.616;9.548;2023-01-25T12:50:24;97980.78;;;2.18;100.00
9139;BME280;4604;48.616;9.548;2023-01-25T12:52:57;97969.88;;;2.30;100.00
9139;BME280;4604;48.616;9.548;2023-01-25T12:55:28;97962.59;;;2.16;100.00
9139;BME280;4604;48.616;9.548;2023-01-25T12:57:57;97966.22;;;2.12;100.00
9139;BME280;4604;48.616;9.548;2023-01-25T13:00:32;97961.34;;;2.04;100.00
9139;BME280;4604;48.616;9.548;2023-01-25T13:03:15;97955.91;;;2.10;100.00
9139;BME280;4604;48.616;9.548;2023-01-25T13:05:46;97960.66;;;2.21;100.00
9139;BME280;4604;48.616;9.548;2023-01-25T13:08:23;97946.66;;;2.24;100.00
9139;BME280;4604;48.616;9.548;2023-01-25T13:11:00;97948.91;;;2.33;100.00
9139;BME280;4604;48.616;9.548;2023-01-25T13:13:30;97949.56;;;2.38;100.00
9139;BME280;4604;48.616;9.548;2023-01-25T13:16:35;97932.06;;;2.42;100.00
9139;BME280;4604;48.616;9.548;2023-01-25T13:19:02;97936.84;;;2.51;100.00
9139;BME280;4604;48.616;9.548;2023-01-25T13:21:41;97935.00;;;2.54;100.00
9139;BME280;4604;48.616;9.548;2023-01-25T13:24:20;97931.53;;;2.54;100.00
9139;BME280;4604;48.616;9.548;2023-01-25T13:27:03;97925.03;;;2.64;100.00
9139;BME280;4604;48.616;9.548;2023-01-25T13:29:57;97922.41;;;2.64;100.00
9139;BME280;4604;48.616;9.548;2023-01-25T13:35:33;97917.72;;;2.52;100.00
9139;BME280;4604;48.616;9.548;2023-01-25T13:38:20;97924.91;;;2.47;100.00
9139;BME280;4604;48.616;9.548;2023-01-25T13:41:02;97930.16;;;2.45;100.00
9139;BME280;4604;48.616;9.548;2023-01-25T13:43:30;97923.97;;;2.48;100.00
9139;BME280;4604;48.616;9.548;2023-01-25T13:45:57;97917.31;;;2.41;100.00
9139;BME280;4604;48.616;9.548;2023-01-25T13:48:24;97923.19;;;2.46;100.00
9139;BME280;4604;48.616;9.548;2023-01-25T13:50:57;97919.03;;;2.62;99.78